Time;durP1;ratioP1;P1;durP2;ratioP2;P2;SDS_P1;SDS_P2;PMS_P1;PMS_P2;Temp;Humidity;BMP_temperature;BMP_pressure;BME280_temperature;BME280_humidity;BME280_pressure;Samples;Min_cycle;Max_cycle;Signal;HPM_P1;HPM_P2
2021/07/19 00:02:04;;;;;;;15.68;6.82;;;16.90;99.90;;;;;;5129023;28;20070;-67
2021/07/19 00:04:38;;;;;;;17.05;7.28;;;16.80;99.90;;;;;;5106446;28;20060;-66
2021/07/19 00:07:04;;;;;;;13.18;6.30;;;16.80;99.90;;;;;;5124360;28;20047;-67
2021/07/19 00:09:30;;;;;;;11.75;6.55;;;16.70;99.90;;;;;;5137237;28;20047;-67
2021/07/19 00:11:56;;;;;;;20.80;8.13;;;16.70;99.90;;;;;;5136105;28;20055;-66
2021/07/19 00:14:21;;;;;;;21.13;9.02;;;16.50;99.90;;;;;;5133319;28;20126;-67
2021/07/19 00:16:47;;;;;;;16.60;8.10;;;16.50;99.90;;;;;;5129998;28;20108;-65
2021/07/19 00:19:13;;;;;;;15.05;7.22;;;16.40;99.90;;;;;;5132828;28;20043;-66
2021/07/19 00:21:39;;;;;;;18.73;8.00;;;16.40;99.90;;;;;;5132250;27;20063;-65
2021/07/19 00:24:05;;;;;;;18.92;8.00;;;16.50;99.90;;;;;;5135145;27;20209;-65
2021/07/19 00:26:31;;;;;;;15.98;7.88;;;16.40;99.90;;;;;;5141692;27;20044;-65
2021/07/19 00:28:57;;;;;;;14.80;7.00;;;16.50;99.90;;;;;;5141294;27;20119;-66
2021/07/19 00:31:22;;;;;;;14.55;6.50;;;16.50;99.90;;;;;;5133302;27;20028;-65
2021/07/19 00:33:49;;;;;;;13.70;7.13;;;16.50;99.90;;;;;;5141572;27;20064;-66
2021/07/19 00:36:15;;;;;;;14.85;7.47;;;16.60;99.90;;;;;;5147712;27;20050;-65
2021/07/19 00:38:40;;;;;;;15.35;6.72;;;16.60;99.90;;;;;;5147778;27;20058;-65
2021/07/19 00:41:06;;;;;;;13.27;6.78;;;16.60;99.90;;;;;;5144132;27;20040;-65
2021/07/19 00:43:32;;;;;;;13.05;6.22;;;16.60;99.90;;;;;;5137476;27;20129;-65
2021/07/19 00:45:58;;;;;;;13.13;6.63;;;16.60;99.90;;;;;;5142555;27;20575;-67
2021/07/19 00:48:24;;;;;;;14.50;6.18;;;16.60;99.90;;;;;;5126915;28;20506;-65
2021/07/19 00:50:50;;;;;;;13.48;6.53;;;16.60;99.90;;;;;;5126756;27;20384;-65
2021/07/19 00:53:15;;;;;;;20.77;8.90;;;16.60;99.90;;;;;;5133443;27;20128;-65
2021/07/19 00:55:44;;;;;;;14.10;6.57;;;16.50;99.90;;;;;;5144804;27;20072;-65
2021/07/19 00:58:11;;;;;;;16.35;6.93;;;16.50;99.90;;;;;;5128380;27;20047;-65
2021/07/19 01:00:44;;;;;;;21.35;8.50;;;16.50;99.90;;;;;;5133754;27;20043;-65
2021/07/19 01:03:12;;;;;;;17.27;7.80;;;16.40;99.90;;;;;;5142791;27;20043;-65
2021/07/19 01:05:40;;;;;;;13.82;7.30;;;16.40;99.90;;;;;;5133527;27;20043;-66
2021/07/19 01:08:06;;;;;;;13.77;7.30;;;16.30;99.90;;;;;;5142931;27;20370;-65
2021/07/19 01:10:34;;;;;;;15.20;7.35;;;16.30;99.90;;;;;;5133541;27;20063;-65
2021/07/19 01:13:01;;;;;;;13.98;7.05;;;16.20;99.90;;;;;;5142356;27;20123;-65
2021/07/19 01:15:31;;;;;;;19.25;7.85;;;16.20;99.90;;;;;;5134266;27;20516;-65
2021/07/19 01:17:57;;;;;;;16.95;7.47;;;16.00;99.90;;;;;;5135665;27;20048;-65
2021/07/19 01:20:58;;;;;;;12.93;7.60;;;16.10;99.90;;;;;;5128180;27;21096;-65
2021/07/19 01:23:46;;;;;;;15.85;7.03;;;16.10;99.90;;;;;;5127326;27;20098;-65
2021/07/19 01:26:30;;;;;;;14.82;7.10;;;16.20;99.90;;;;;;5131420;27;20039;-66
2021/07/19 01:28:58;;;;;;;15.85;7.00;;;16.20;99.90;;;;;;5141217;27;20043;-66
2021/07/19 01:31:28;;;;;;;14.32;6.50;;;16.10;99.90;;;;;;5132882;27;20585;-66
2021/07/19 01:34:06;;;;;;;18.15;8.23;;;16.20;99.90;;;;;;5128071;27;20193;-66
2021/07/19 01:36:35;;;;;;;16.50;6.85;;;16.20;99.90;;;;;;5145541;27;20054;-66
2021/07/19 01:39:03;;;;;;;17.58;6.95;;;16.10;99.90;;;;;;5140419;27;20054;-66
2021/07/19 01:41:30;;;;;;;13.93;6.63;;;16.10;99.90;;;;;;5131916;27;20106;-66
2021/07/19 01:43:58;;;;;;;14.45;6.82;;;16.00;99.90;;;;;;5139206;27;20352;-66
2021/07/19 01:46:26;;;;;;;13.55;6.60;;;16.00;99.90;;;;;;5129169;27;20059;-66
2021/07/19 01:48:53;;;;;;;13.73;6.93;;;16.00;99.90;;;;;;5135576;27;20047;-65
2021/07/19 01:51:20;;;;;;;15.00;7.20;;;15.90;99.90;;;;;;5145550;27;20043;-66
2021/07/19 01:53:47;;;;;;;13.85;7.43;;;16.00;99.90;;;;;;5133822;27;20066;-66
2021/07/19 01:56:14;;;;;;;14.52;6.82;;;16.00;99.90;;;;;;5132709;27;20043;-66
2021/07/19 01:58:41;;;;;;;15.15;7.05;;;16.00;99.90;;;;;;5136948;27;20071;-66
2021/07/19 02:01:07;;;;;;;13.70;6.10;;;16.00;99.90;;;;;;5143489;27;20043;-66
2021/07/19 02:03:33;;;;;;;13.75;7.03;;;15.90;99.90;;;;;;5137376;27;20039;-66
2021/07/19 02:06:02;;;;;;;10.38;6.28;;;16.00;99.90;;;;;;5135558;27;20051;-66
2021/07/19 02:08:28;;;;;;;15.98;5.97;;;16.00;99.90;;;;;;5132208;27;20262;-66
2021/07/19 02:10:55;;;;;;;12.68;5.93;;;16.00;99.90;;;;;;5144018;27;20069;-66
2021/07/19 02:13:23;;;;;;;19.65;6.75;;;16.00;99.90;;;;;;5132795;27;20040;-66
2021/07/19 02:15:52;;;;;;;13.35;6.47;;;16.00;99.90;;;;;;5142796;27;20047;-66
2021/07/19 02:18:20;;;;;;;13.40;6.28;;;16.00;99.90;;;;;;5141413;27;20077;-66
2021/07/19 02:20:48;;;;;;;14.88;6.10;;;15.90;99.90;;;;;;5143881;27;20054;-67
2021/07/19 02:23:15;;;;;;;17.52;6.65;;;15.90;99.90;;;;;;5140267;27;20085;-66
2021/07/19 02:25:42;;;;;;;17.42;6.93;;;15.90;99.90;;;;;;5128534;27;20126;-66
2021/07/19 02:28:10;;;;;;;10.95;6.15;;;15.80;99.90;;;;;;5141764;27;20067;-66
2021/07/19 02:30:37;;;;;;;19.20;6.72;;;15.90;99.90;;;;;;5137724;27;20052;-66
2021/07/19 02:33:03;;;;;;;13.32;6.05;;;15.80;99.90;;;;;;5142161;27;20044;-66
2021/07/19 02:35:31;;;;;;;14.13;5.80;;;15.80;99.90;;;;;;5137183;27;20309;-66
2021/07/19 02:38:03;;;;;;;12.13;6.25;;;15.80;99.90;;;;;;5141463;27;20047;-66
2021/07/19 02:40:31;;;;;;;15.40;6.72;;;15.80;99.90;;;;;;5144049;27;20047;-66
2021/07/19 02:43:00;;;;;;;13.38;6.38;;;15.90;99.90;;;;;;5143547;27;20046;-66
2021/07/19 02:45:27;;;;;;;15.38;6.85;;;15.90;99.90;;;;;;5134846;27;20124;-66
2021/07/19 02:47:54;;;;;;;22.25;6.97;;;16.00;99.90;;;;;;5139487;27;20085;-65
2021/07/19 02:50:25;;;;;;;12.68;6.70;;;16.00;99.90;;;;;;5135709;27;20035;-66
2021/07/19 02:52:52;;;;;;;14.73;7.10;;;16.00;99.90;;;;;;5143069;27;20051;-66
2021/07/19 02:55:19;;;;;;;13.25;6.78;;;16.00;99.90;;;;;;5133778;27;20097;-66
2021/07/19 02:57:45;;;;;;;18.20;7.05;;;16.00;99.90;;;;;;5126856;27;20078;-66
2021/07/19 03:00:13;;;;;;;12.95;6.90;;;16.10;99.90;;;;;;5142296;27;20043;-66
2021/07/19 03:02:43;;;;;;;14.45;7.28;;;16.10;99.90;;;;;;5137193;27;20076;-66
2021/07/19 03:05:11;;;;;;;15.70;7.22;;;16.10;99.90;;;;;;5144270;27;20050;-66
2021/07/19 03:07:38;;;;;;;13.95;6.18;;;16.10;99.90;;;;;;5137674;27;20043;-66
2021/07/19 03:10:08;;;;;;;13.35;6.63;;;16.10;99.90;;;;;;5141665;27;20076;-66
2021/07/19 03:12:36;;;;;;;13.93;7.57;;;16.10;99.90;;;;;;5136580;27;20054;-66
2021/07/19 03:15:04;;;;;;;15.77;7.00;;;16.10;99.90;;;;;;5144553;27;20050;-66
2021/07/19 03:17:31;;;;;;;18.75;6.40;;;16.10;99.90;;;;;;5130348;27;20085;-66
2021/07/19 03:19:58;;;;;;;13.55;6.82;;;16.10;99.90;;;;;;5144020;27;20039;-66
2021/07/19 03:22:26;;;;;;;14.63;7.70;;;16.10;99.90;;;;;;5130708;27;20046;-66
2021/07/19 03:24:54;;;;;;;14.15;6.82;;;16.00;99.90;;;;;;5133322;27;20051;-66
2021/07/19 03:27:23;;;;;;;22.15;7.20;;;16.00;99.90;;;;;;5141772;27;20137;-66
2021/07/19 03:29:51;;;;;;;11.15;7.30;;;16.00;99.90;;;;;;5134527;27;20050;-66
2021/07/19 03:32:19;;;;;;;12.15;6.80;;;16.00;99.90;;;;;;5124167;27;20046;-66
2021/07/19 03:34:45;;;;;;;17.35;7.55;;;16.00;99.90;;;;;;5125294;27;20052;-66
2021/07/19 03:37:11;;;;;;;15.63;7.15;;;15.90;99.90;;;;;;5129549;27;20050;-66
2021/07/19 03:39:39;;;;;;;16.15;7.00;;;16.00;99.90;;;;;;5129921;27;20047;-65
2021/07/19 03:42:06;;;;;;;17.42;6.85;;;16.00;99.90;;;;;;5129458;27;20051;-65
2021/07/19 03:44:35;;;;;;;16.05;8.05;;;16.00;99.90;;;;;;5128695;28;20050;-65
2021/07/19 03:47:01;;;;;;;12.13;6.88;;;16.00;99.90;;;;;;5134431;27;20118;-66
2021/07/19 03:49:31;;;;;;;16.38;8.30;;;16.00;99.90;;;;;;5136426;27;20046;-65
2021/07/19 03:52:00;;;;;;;16.10;6.70;;;16.10;99.90;;;;;;5128937;28;20043;-65
2021/07/19 03:54:27;;;;;;;19.98;7.30;;;16.10;99.90;;;;;;5137626;28;20112;-65
2021/07/19 03:56:53;;;;;;;18.65;8.07;;;16.10;99.90;;;;;;5140935;27;20130;-65
2021/07/19 03:59:21;;;;;;;19.25;7.68;;;16.10;99.90;;;;;;5131984;28;20154;-65
2021/07/19 04:01:48;;;;;;;19.85;8.10;;;16.10;99.90;;;;;;5138496;28;20035;-66
2021/07/19 04:04:19;;;;;;;16.80;8.07;;;16.10;99.90;;;;;;5131166;28;20039;-68
2021/07/19 04:06:46;;;;;;;15.43;7.47;;;16.10;99.90;;;;;;5138378;28;20126;-65
2021/07/19 04:09:12;;;;;;;17.52;8.45;;;16.10;99.90;;;;;;5130748;28;20047;-65
2021/07/19 04:11:39;;;;;;;13.57;7.05;;;16.10;99.90;;;;;;5144286;28;20066;-65
2021/07/19 04:14:09;;;;;;;15.70;7.28;;;16.10;99.90;;;;;;5131594;28;20066;-66
2021/07/19 04:16:35;;;;;;;14.82;6.88;;;16.00;99.90;;;;;;5135690;28;20043;-66
2021/07/19 04:19:03;;;;;;;;;;;16.00;99.90;;;;;;5144351;28;20058;-66
2021/07/19 04:21:32;;;;;;;15.43;7.68;;;16.00;99.90;;;;;;5126672;28;19923;-65
2021/07/19 04:23:59;;;;;;;20.73;7.35;;;16.10;99.90;;;;;;5140445;28;20055;-67
2021/07/19 04:26:26;;;;;;;17.30;6.82;;;16.00;99.90;;;;;;5116632;28;20063;-66
2021/07/19 04:28:53;;;;;;;27.17;7.05;;;16.00;99.90;;;;;;5139553;28;20043;-67
2021/07/19 04:31:19;;;;;;;14.40;6.68;;;16.10;99.90;;;;;;5136336;28;20092;-66
2021/07/19 04:33:46;;;;;;;12.65;5.93;;;16.10;99.90;;;;;;5143984;28;20126;-67
2021/07/19 04:36:12;;;;;;;18.77;6.80;;;16.10;99.90;;;;;;5130072;28;20050;-66
2021/07/19 04:38:38;;;;;;;11.73;6.00;;;16.00;99.90;;;;;;5143982;28;20367;-67
2021/07/19 04:41:04;;;;;;;12.25;5.70;;;16.10;99.90;;;;;;5136367;28;20043;-66
2021/07/19 04:43:29;;;;;;;16.42;5.10;;;16.10;99.90;;;;;;5143827;28;20060;-66
2021/07/19 04:45:55;;;;;;;12.52;5.43;;;16.10;99.90;;;;;;5135247;28;20111;-66
2021/07/19 04:48:22;;;;;;;10.70;5.13;;;16.20;99.90;;;;;;5143086;28;20098;-66
2021/07/19 04:50:48;;;;;;;13.85;4.50;;;16.20;99.90;;;;;;5136117;28;20047;-67
2021/07/19 04:53:15;;;;;;;13.52;4.38;;;16.20;99.90;;;;;;5136735;28;20158;-67
2021/07/19 04:55:51;;;;;;;10.75;4.85;;;16.20;99.90;;;;;;5124288;28;20035;-67
2021/07/19 04:58:19;;;;;;;15.70;4.95;;;16.20;99.90;;;;;;5127502;28;20044;-66
2021/07/19 05:00:54;;;;;;;12.55;5.15;;;16.20;99.90;;;;;;5123784;28;20039;-66
2021/07/19 05:03:23;;;;;;;11.77;4.22;;;16.30;99.90;;;;;;5131988;28;20122;-67
2021/07/19 05:05:50;;;;;;;14.65;4.70;;;16.20;99.90;;;;;;5124538;28;20077;-66
2021/07/19 05:08:19;;;;;;;17.23;4.55;;;16.30;99.90;;;;;;5133606;27;20059;-67
2021/07/19 05:10:46;;;;;;;15.82;5.00;;;16.30;99.90;;;;;;5142940;27;20087;-67
2021/07/19 05:13:14;;;;;;;11.18;4.80;;;16.30;99.90;;;;;;5135163;27;20040;-67
2021/07/19 05:15:41;;;;;;;12.52;4.60;;;16.30;99.90;;;;;;5141966;27;20035;-66
2021/07/19 05:18:09;;;;;;;14.20;4.60;;;16.40;99.90;;;;;;5127502;27;20050;-67
2021/07/19 05:20:36;;;;;;;13.60;5.10;;;16.50;99.90;;;;;;5127206;27;20048;-66
2021/07/19 05:23:03;;;;;;;13.52;5.20;;;16.50;99.90;;;;;;5135131;27;20053;-66
2021/07/19 05:25:31;;;;;;;16.20;5.35;;;16.60;99.90;;;;;;5127048;27;20057;-66
2021/07/19 05:28:10;;;;;;;13.40;4.13;;;16.60;99.90;;;;;;5126561;28;20062;-66
2021/07/19 05:30:39;;;;;;;10.15;4.57;;;16.60;99.90;;;;;;5138335;27;20056;-65
2021/07/19 05:33:05;;;;;;;10.80;4.38;;;16.60;99.90;;;;;;5146883;27;20039;-65
2021/07/19 05:35:31;;;;;;;12.00;4.50;;;16.70;99.90;;;;;;5140844;27;20050;-68
2021/07/19 05:37:57;;;;;;;13.87;5.13;;;16.70;99.90;;;;;;5127200;27;20042;-67
2021/07/19 05:40:23;;;;;;;10.88;3.92;;;16.70;99.90;;;;;;5139011;27;20058;-66
2021/07/19 05:42:49;;;;;;;11.07;4.45;;;16.70;99.90;;;;;;5146768;27;20103;-66
2021/07/19 05:45:16;;;;;;;14.00;4.22;;;16.80;99.90;;;;;;5138865;27;20059;-66
2021/07/19 05:47:42;;;;;;;14.80;4.88;;;16.90;99.90;;;;;;5146049;27;20077;-65
2021/07/19 05:50:09;;;;;;;12.25;3.78;;;17.00;99.90;;;;;;5139228;27;20035;-65
2021/07/19 05:52:35;;;;;;;16.70;4.70;;;17.00;99.90;;;;;;5140832;27;20099;-66
2021/07/19 05:55:05;;;;;;;15.45;4.25;;;17.10;99.90;;;;;;5126848;27;20065;-65
2021/07/19 05:57:31;;;;;;;13.90;3.88;;;17.10;99.90;;;;;;5130113;27;20044;-66
2021/07/19 05:59:57;;;;;;;11.05;4.07;;;17.20;99.90;;;;;;5138725;27;20082;-65
2021/07/19 06:02:27;;;;;;;8.98;3.35;;;17.30;99.90;;;;;;5140998;27;20039;-65
2021/07/19 06:04:53;;;;;;;10.20;3.35;;;17.30;99.90;;;;;;5133055;27;20040;-66
2021/07/19 06:07:19;;;;;;;23.30;4.75;;;17.20;99.90;;;;;;5137009;27;20406;-65
2021/07/19 06:09:45;;;;;;;11.55;3.53;;;17.20;99.90;;;;;;5143240;27;20039;-65
2021/07/19 06:12:13;;;;;;;10.27;3.85;;;17.20;99.90;;;;;;5141202;27;20122;-66
2021/07/19 06:14:39;;;;;;;18.27;4.90;;;17.20;99.90;;;;;;5137959;27;20058;-66
2021/07/19 06:17:06;;;;;;;9.90;3.60;;;17.20;99.90;;;;;;5136112;27;20036;-66
2021/07/19 06:19:32;;;;;;;14.07;4.90;;;17.00;99.90;;;;;;5139880;27;20048;-66
2021/07/19 06:21:58;;;;;;;14.10;3.80;;;17.00;99.90;;;;;;5134613;27;20044;-66
2021/07/19 06:24:24;;;;;;;11.15;4.03;;;17.00;99.90;;;;;;5141665;27;20043;-66
2021/07/19 06:26:50;;;;;;;20.67;4.25;;;16.90;99.90;;;;;;5126170;27;20040;-66
2021/07/19 06:29:17;;;;;;;8.60;3.53;;;16.90;99.90;;;;;;5125323;27;20043;-66
2021/07/19 06:31:43;;;;;;;21.42;4.68;;;16.90;99.90;;;;;;5122246;27;20414;-66
2021/07/19 06:34:09;;;;;;;13.52;3.95;;;17.00;99.90;;;;;;5126081;27;20502;-66
2021/07/19 06:36:37;;;;;;;12.38;4.15;;;17.10;99.90;;;;;;5125610;27;20043;-66
2021/07/19 06:39:04;;;;;;;15.65;4.65;;;17.20;99.90;;;;;;5140051;27;20059;-66
2021/07/19 06:41:33;;;;;;;12.93;3.80;;;17.30;99.90;;;;;;5145596;27;20043;-66
2021/07/19 06:43:59;;;;;;;14.30;4.20;;;17.40;99.90;;;;;;5141623;27;20062;-66
2021/07/19 06:46:25;;;;;;;12.55;3.55;;;17.30;99.90;;;;;;5131684;27;20058;-66
2021/07/19 06:48:50;;;;;;;15.57;4.88;;;17.30;99.90;;;;;;5139319;27;20478;-66
2021/07/19 06:51:17;;;;;;;23.50;4.43;;;17.30;99.90;;;;;;5131289;27;20084;-66
2021/07/19 06:53:42;;;;;;;29.75;5.43;;;17.30;99.90;;;;;;5138942;27;20049;-66
2021/07/19 06:56:09;;;;;;;36.00;5.20;;;17.40;99.90;;;;;;5129571;27;20126;-67
2021/07/19 06:58:34;;;;;;;21.65;4.63;;;17.40;99.90;;;;;;5131508;27;20058;-65
2021/07/19 07:01:00;;;;;;;12.65;3.30;;;17.40;99.90;;;;;;5141148;27;20414;-65
2021/07/19 07:03:26;;;;;;;9.07;3.30;;;17.40;99.90;;;;;;5134343;27;20063;-66
2021/07/19 07:05:52;;;;;;;11.02;4.10;;;17.50;99.90;;;;;;5132955;27;20314;-66
2021/07/19 07:08:17;;;;;;;9.82;4.25;;;17.70;99.90;;;;;;5127577;27;20048;-66
2021/07/19 07:10:43;;;;;;;15.95;3.55;;;17.90;99.90;;;;;;5140344;27;20511;-66
2021/07/19 07:13:09;;;;;;;10.18;4.15;;;18.00;99.90;;;;;;5135975;27;20044;-66
2021/07/19 07:15:37;;;;;;;12.77;3.72;;;17.90;99.90;;;;;;5138077;27;20055;-66
2021/07/19 07:18:06;;;;;;;;;;;17.80;99.90;;;;;;5138317;27;20048;-66
2021/07/19 07:20:31;;;;;;;;;;;17.80;99.90;;;;;;5136922;27;19927;-67
2021/07/19 07:22:57;;;;;;;10.75;3.53;;;17.80;99.90;;;;;;5137850;27;19924;-67
2021/07/19 07:25:23;;;;;;;8.45;2.80;;;17.80;99.90;;;;;;5124913;27;20062;-67
2021/07/19 07:27:49;;;;;;;8.60;3.42;;;17.90;99.90;;;;;;5139134;27;20047;-66
2021/07/19 07:30:16;;;;;;;9.13;3.35;;;17.90;99.90;;;;;;5132632;27;20045;-66
2021/07/19 07:32:42;;;;;;;8.63;3.47;;;18.10;99.90;;;;;;5125924;27;20035;-67
2021/07/19 07:35:09;;;;;;;13.13;3.67;;;18.20;99.90;;;;;;5133632;27;20043;-67
2021/07/19 07:37:38;;;;;;;12.30;3.67;;;17.90;99.90;;;;;;5139805;27;20038;-67
2021/07/19 07:40:06;;;;;;;11.00;3.20;;;17.90;99.90;;;;;;5124714;27;20289;-67
2021/07/19 07:42:32;;;;;;;10.85;3.42;;;17.80;99.90;;;;;;5139262;27;20043;-67
2021/07/19 07:44:59;;;;;;;8.07;3.17;;;17.90;99.90;;;;;;5144596;27;20043;-67
2021/07/19 07:47:25;;;;;;;9.13;3.17;;;18.00;99.90;;;;;;5124753;28;20313;-66
2021/07/19 07:49:51;;;;;;;9.68;3.70;;;18.00;99.90;;;;;;5131271;27;20078;-67
2021/07/19 07:52:18;;;;;;;8.75;2.70;;;18.10;99.90;;;;;;5144489;27;20062;-66
2021/07/19 07:54:45;;;;;;;6.70;3.38;;;18.20;99.90;;;;;;5130700;28;20047;-66
2021/07/19 07:57:11;;;;;;;14.55;3.50;;;18.20;99.90;;;;;;5131433;28;20040;-66
2021/07/19 07:59:37;;;;;;;9.68;2.70;;;18.50;99.90;;;;;;5136830;28;20050;-67
2021/07/19 08:02:03;;;;;;;8.85;2.70;;;18.60;99.90;;;;;;5133785;28;20118;-67
2021/07/19 08:04:29;;;;;;;8.75;2.95;;;18.40;99.90;;;;;;5141075;28;20070;-66
2021/07/19 08:06:59;;;;;;;6.35;3.08;;;18.50;99.90;;;;;;5140734;28;20046;-66
2021/07/19 08:09:25;;;;;;;6.43;2.47;;;18.30;99.90;;;;;;5141286;28;20035;-66
2021/07/19 08:11:51;;;;;;;9.27;2.72;;;18.50;99.90;;;;;;5129344;28;20043;-67
2021/07/19 08:14:17;;;;;;;9.35;2.50;;;18.70;99.90;;;;;;5131975;28;20031;-66
2021/07/19 08:16:43;;;;;;;9.25;2.80;;;18.70;99.90;;;;;;5133889;28;20039;-66
2021/07/19 08:19:10;;;;;;;5.93;2.60;;;18.70;99.90;;;;;;5139275;28;20047;-66
2021/07/19 08:21:38;;;;;;;5.32;2.55;;;18.70;99.90;;;;;;5139915;28;20681;-65
2021/07/19 08:24:04;;;;;;;7.10;2.72;;;18.80;99.90;;;;;;5137341;28;20039;-67
2021/07/19 08:26:31;;;;;;;10.77;3.30;;;18.60;99.90;;;;;;5137747;28;20047;-66
2021/07/19 08:28:57;;;;;;;7.80;3.33;;;18.70;99.90;;;;;;5136023;28;20039;-66
2021/07/19 08:31:25;;;;;;;4.03;2.30;;;18.90;99.90;;;;;;5138306;28;20039;-66
2021/07/19 08:33:51;;;;;;;5.88;2.40;;;18.90;99.90;;;;;;5133621;28;20062;-65
2021/07/19 08:36:17;;;;;;;9.20;2.30;;;18.60;99.90;;;;;;5126233;28;20043;-66
2021/07/19 08:38:43;;;;;;;4.60;2.30;;;18.60;99.90;;;;;;5129866;28;20566;-66
2021/07/19 08:41:09;;;;;;;9.65;2.75;;;18.60;99.90;;;;;;5138704;28;20065;-66
2021/07/19 08:43:36;;;;;;;5.45;2.65;;;18.70;99.90;;;;;;5126676;27;20406;-66
2021/07/19 08:46:02;;;;;;;4.78;2.30;;;18.70;99.90;;;;;;5142745;27;20134;-65
2021/07/19 08:48:28;;;;;;;9.60;2.72;;;18.90;99.90;;;;;;5137487;27;20051;-66
2021/07/19 08:50:55;;;;;;;10.00;2.63;;;18.90;99.90;;;;;;5134361;27;20050;-66
2021/07/19 08:53:21;;;;;;;9.10;3.00;;;18.90;99.90;;;;;;5134468;27;20037;-66
2021/07/19 08:55:50;;;;;;;6.63;2.38;;;19.00;99.90;;;;;;5133503;27;20122;-65
2021/07/19 08:58:16;;;;;;;5.30;2.65;;;19.20;99.90;;;;;;5135946;27;20050;-65
2021/07/19 09:00:43;;;;;;;6.88;2.60;;;19.30;99.90;;;;;;5139086;27;20043;-65
2021/07/19 09:03:09;;;;;;;8.18;2.67;;;19.60;99.90;;;;;;5139280;27;20044;-65
2021/07/19 09:05:37;;;;;;;8.23;3.17;;;19.60;99.90;;;;;;5135155;27;20058;-65
2021/07/19 09:08:03;;;;;;;;;;;19.70;99.90;;;;;;5135426;27;20047;-66
2021/07/19 09:10:29;;;;;;;9.63;2.75;;;19.50;99.90;;;;;;5134795;27;19927;-65
2021/07/19 09:12:58;;;;;;;8.27;2.60;;;19.50;99.90;;;;;;5143975;27;20047;-66
2021/07/19 09:15:33;;;;;;;7.03;2.28;;;19.60;99.90;;;;;;5135754;27;20062;-66
2021/07/19 09:17:59;;;;;;;6.65;2.13;;;20.00;99.90;;;;;;5144633;27;20074;-66
2021/07/19 09:20:35;;;;;;;6.43;2.30;;;20.10;99.90;;;;;;5149431;27;20507;-66
2021/07/19 09:23:01;;;;;;;8.75;2.22;;;20.00;99.90;;;;;;5148740;27;20050;-66
2021/07/19 09:25:27;;;;;;;18.83;3.60;;;19.90;99.90;;;;;;5149491;27;20066;-65
2021/07/19 09:27:57;;;;;;;6.35;2.03;;;20.00;99.90;;;;;;5149428;27;20075;-66
2021/07/19 09:30:27;;;;;;;8.95;2.30;;;20.10;99.90;;;;;;5149558;27;20043;-66
2021/07/19 09:33:01;;;;;;;7.97;2.45;;;20.20;99.90;;;;;;5149382;27;20043;-65
2021/07/19 09:35:29;;;;;;;12.23;2.75;;;19.80;99.90;;;;;;5149328;27;20043;-65
2021/07/19 09:38:01;;;;;;;7.38;2.08;;;19.60;99.90;;;;;;5149007;27;20047;-65
2021/07/19 09:40:31;;;;;;;8.73;2.50;;;19.50;99.90;;;;;;5149472;27;20055;-66
2021/07/19 09:42:57;;;;;;;4.78;2.00;;;19.80;99.90;;;;;;5149237;27;20383;-65
2021/07/19 09:45:29;;;;;;;9.02;3.13;;;20.00;99.90;;;;;;5149237;27;20067;-66
2021/07/19 09:48:06;;;;;;;8.70;3.42;;;20.20;99.90;;;;;;5149054;27;20081;-66
2021/07/19 09:50:53;;;;;;;6.03;3.03;;;20.40;99.90;;;;;;5148781;27;20047;-66
2021/07/19 09:53:32;;;;;;;8.45;3.20;;;19.90;99.90;;;;;;5148937;27;20154;-66
2021/07/19 09:56:15;;;;;;;13.45;3.88;;;19.90;99.90;;;;;;5149104;27;20043;-66
2021/07/19 09:58:42;;;;;;;10.85;4.45;;;19.80;99.90;;;;;;5140310;27;20142;-66
2021/07/19 10:01:09;;;;;;;6.85;3.47;;;19.90;99.90;;;;;;5111600;27;20035;-65
2021/07/19 10:03:35;;;;;;;6.97;3.45;;;19.80;99.90;;;;;;5135287;27;20046;-65
2021/07/19 10:06:07;;;;;;;6.07;3.20;;;19.70;99.90;;;;;;5130834;27;20043;-66
2021/07/19 10:08:34;;;;;;;11.18;3.97;;;19.80;99.90;;;;;;5133217;27;20043;-66
2021/07/19 10:11:00;;;;;;;5.57;3.30;;;20.20;99.90;;;;;;5131184;27;20100;-66
2021/07/19 10:13:35;;;;;;;8.48;2.97;;;20.20;99.80;;;;;;5132478;27;20046;-66
2021/07/19 10:16:02;;;;;;;8.73;4.10;;;20.10;99.90;;;;;;5129706;27;20115;-66
2021/07/19 10:18:30;;;;;;;6.22;3.88;;;20.40;98.80;;;;;;5128407;27;20039;-66
2021/07/19 10:20:57;;;;;;;9.65;4.03;;;20.70;99.90;;;;;;5132726;27;20043;-66
2021/07/19 10:23:23;;;;;;;7.60;3.63;;;20.90;99.90;;;;;;5138951;27;20035;-65
2021/07/19 10:25:51;;;;;;;7.30;3.67;;;21.00;99.90;;;;;;5129939;27;20051;-65
2021/07/19 10:28:17;;;;;;;6.90;3.40;;;21.00;99.90;;;;;;5130659;27;20434;-66
2021/07/19 10:30:44;;;;;;;4.90;3.25;;;20.80;99.10;;;;;;5139708;27;20073;-65
2021/07/19 10:33:09;;;;;;;7.72;3.83;;;20.30;99.40;;;;;;5135598;27;20051;-65
2021/07/19 10:35:35;;;;;;;7.25;3.65;;;20.00;99.90;;;;;;5134581;27;20438;-65
2021/07/19 10:38:10;;;;;;;7.03;3.92;;;20.00;99.90;;;;;;5119836;28;20046;-65
2021/07/19 10:40:38;;;;;;;8.05;4.45;;;20.00;99.90;;;;;;5127812;27;20043;-65
2021/07/19 10:43:10;;;;;;;8.68;3.90;;;20.00;99.80;;;;;;5121471;27;20039;-66
2021/07/19 10:45:42;;;;;;;7.13;4.20;;;20.00;99.90;;;;;;5135143;27;20161;-66
2021/07/19 10:48:09;;;;;;;11.15;5.80;;;20.30;99.90;;;;;;5134631;27;20039;-66
2021/07/19 10:50:38;;;;;;;8.63;5.55;;;20.50;99.90;;;;;;5138279;27;20046;-66
2021/07/19 10:53:16;;;;;;;13.02;6.82;;;20.10;99.80;;;;;;5127030;27;20094;-66
2021/07/19 10:55:41;;;;;;;9.02;5.65;;;20.20;99.90;;;;;;5132899;27;20107;-66
2021/07/19 10:58:14;;;;;;;8.75;5.25;;;19.90;99.90;;;;;;5129035;27;20162;-66
2021/07/19 11:00:42;;;;;;;9.82;6.30;;;19.70;99.90;;;;;;5131821;27;20031;-66
2021/07/19 11:03:16;;;;;;;9.55;6.38;;;19.80;99.90;;;;;;5139678;27;20118;-65
2021/07/19 11:05:45;;;;;;;10.15;6.28;;;19.90;99.80;;;;;;5131063;27;20101;-66
2021/07/19 11:08:24;;;;;;;8.85;6.00;;;20.00;98.50;;;;;;5136265;27;20095;-66
2021/07/19 11:10:52;;;;;;;8.82;6.45;;;20.10;98.80;;;;;;5133121;27;20040;-65
2021/07/19 11:13:34;;;;;;;10.32;6.80;;;20.00;99.00;;;;;;5126689;27;20099;-66
2021/07/19 11:16:00;;;;;;;13.60;6.72;;;20.20;99.90;;;;;;5125457;27;20047;-66
2021/07/19 11:18:29;;;;;;;10.65;5.80;;;20.80;99.70;;;;;;5133786;27;20091;-66
2021/07/19 11:20:57;;;;;;;10.05;6.60;;;20.80;98.90;;;;;;5138024;27;20123;-66
2021/07/19 11:23:38;;;;;;;10.35;6.55;;;20.80;98.90;;;;;;5135782;27;20046;-66
2021/07/19 11:26:17;;;;;;;11.85;7.18;;;20.80;98.90;;;;;;5140600;27;20473;-65
2021/07/19 11:28:43;;;;;;;9.20;6.45;;;20.90;97.20;;;;;;5137777;27;20045;-65
2021/07/19 11:31:18;;;;;;;9.88;6.82;;;20.70;97.50;;;;;;5133330;27;20333;-65
2021/07/19 11:33:48;;;;;;;10.38;6.80;;;20.40;98.80;;;;;;5131804;27;20054;-65
2021/07/19 11:36:31;;;;;;;9.80;7.32;;;20.50;99.90;;;;;;5135895;27;20039;-65
2021/07/19 11:38:59;;;;;;;9.10;6.72;;;20.60;99.90;;;;;;5140841;27;20103;-65
2021/07/19 11:41:32;;;;;;;11.27;7.47;;;20.30;99.90;;;;;;5132572;27;20036;-66
2021/07/19 11:44:02;;;;;;;11.20;7.18;;;20.10;99.90;;;;;;5127583;27;20040;-65
2021/07/19 11:46:28;;;;;;;10.65;7.00;;;20.10;99.90;;;;;;5136293;27;20475;-65
2021/07/19 11:48:59;;;;;;;11.75;7.85;;;20.00;99.90;;;;;;5128738;27;20039;-65
2021/07/19 11:51:27;;;;;;;13.85;8.35;;;19.80;99.90;;;;;;5132565;27;20048;-65
2021/07/19 11:53:54;;;;;;;;;;;20.20;99.90;;;;;;5136798;27;20441;-65
2021/07/19 11:56:20;;;;;;;13.00;7.00;;;20.50;99.90;;;;;;5134230;28;20425;-66
2021/07/19 11:59:00;;;;;;;10.95;7.47;;;20.90;99.90;;;;;;5130109;28;20035;-66
2021/07/19 12:01:30;;;;;;;12.73;7.90;;;21.20;99.00;;;;;;5136941;28;20115;-66
2021/07/19 12:03:56;;;;;;;11.70;8.07;;;22.00;98.40;;;;;;5131229;28;20039;-65
2021/07/19 12:06:23;;;;;;;11.80;7.22;;;21.60;99.60;;;;;;5135398;28;20070;-66
2021/07/19 12:09:00;;;;;;;16.48;8.15;;;21.80;99.80;;;;;;5138893;28;20066;-66
2021/07/19 12:11:27;;;;;;;9.88;8.00;;;22.50;98.70;;;;;;5135431;28;20039;-66
2021/07/19 12:14:08;;;;;;;15.27;8.18;;;22.70;98.40;;;;;;5139554;28;20101;-66
2021/07/19 12:16:39;;;;;;;13.10;8.07;;;23.20;98.40;;;;;;5135118;27;20100;-66
2021/07/19 12:19:06;;;;;;;9.90;8.20;;;23.50;98.20;;;;;;5145872;27;20035;-65
2021/07/19 12:21:57;;;;;;;9.80;8.00;;;23.70;97.00;;;;;;5133810;27;20048;-65
2021/07/19 12:24:26;;;;;;;12.77;9.30;;;23.70;94.20;;;;;;5124237;27;20050;-66
2021/07/19 12:26:55;;;;;;;11.27;8.73;;;23.40;94.90;;;;;;5128059;27;20035;-66
2021/07/19 12:29:30;;;;;;;13.52;9.10;;;22.90;95.40;;;;;;5140730;27;20069;-66
2021/07/19 12:32:22;;;;;;;15.07;9.23;;;22.50;96.80;;;;;;5139153;27;20047;-65
2021/07/19 12:34:49;;;;;;;10.52;8.00;;;23.00;96.10;;;;;;5130101;27;20123;-66
2021/07/19 12:37:19;;;;;;;16.27;8.48;;;22.60;95.20;;;;;;5132950;27;20100;-66
2021/07/19 12:39:53;;;;;;;13.35;8.73;;;23.30;94.70;;;;;;5129600;27;20066;-65
2021/07/19 12:42:28;;;;;;;12.85;8.30;;;23.70;96.00;;;;;;5138442;27;20054;-65
2021/07/19 12:44:56;;;;;;;11.05;7.85;;;23.90;94.00;;;;;;5128627;27;20043;-65
2021/07/19 12:47:23;;;;;;;9.13;7.75;;;24.10;91.30;;;;;;5134602;27;20048;-65